createdAt,value
2022-08-17T00:00:33.268Z,17.07
2022-08-17T00:03:02.835Z,16.27
2022-08-17T00:05:37.138Z,16.43
2022-08-17T00:08:06.102Z,16.27
2022-08-17T00:10:35.738Z,17.87
2022-08-17T00:13:07.885Z,17.77
2022-08-17T00:15:36.068Z,17.30
2022-08-17T00:18:04.582Z,16.43
2022-08-17T00:20:52.581Z,16.80
2022-08-17T00:23:20.714Z,16.47
2022-08-17T00:25:50.534Z,17.03
2022-08-17T00:28:19.030Z,17.47
2022-08-17T00:30:52.946Z,18.47
2022-08-17T00:33:26.030Z,16.73
2022-08-17T00:35:55.029Z,17.37
2022-08-17T00:38:23.917Z,18.20
2022-08-17T00:40:55.906Z,17.70
2022-08-17T00:43:31.741Z,18.33
2022-08-17T00:46:00.402Z,17.43
2022-08-17T00:48:30.203Z,19.13
2022-08-17T00:51:03.871Z,18.40
2022-08-17T00:53:33.873Z,18.00
2022-08-17T00:56:05.901Z,17.70
2022-08-17T00:58:36.461Z,17.57
2022-08-17T01:01:06.711Z,16.90
2022-08-17T01:03:36.101Z,18.27
2022-08-17T01:06:06.511Z,17.90
2022-08-17T01:08:35.203Z,17.83
2022-08-17T01:11:05.301Z,18.07
2022-08-17T01:13:41.244Z,18.33
2022-08-17T01:16:15.816Z,17.67
2022-08-17T01:18:44.817Z,17.40
2022-08-17T01:21:21.209Z,18.30
2022-08-17T01:23:50.572Z,18.57
2022-08-17T01:26:19.188Z,18.40
2022-08-17T01:28:53.778Z,18.80
2022-08-17T01:31:25.181Z,19.07
2022-08-17T01:33:53.251Z,19.17
2022-08-17T01:36:21.774Z,19.83
2022-08-17T01:38:51.182Z,18.90
2022-08-17T01:41:22.145Z,17.90
2022-08-17T01:43:53.395Z,18.83
2022-08-17T01:46:24.230Z,21.13
2022-08-17T01:48:52.122Z,21.07
2022-08-17T01:51:20.149Z,21.40
2022-08-17T01:53:52.921Z,21.63
2022-08-17T01:56:25.221Z,20.60
2022-08-17T01:58:53.798Z,20.97
2022-08-17T02:01:26.386Z,20.47
2022-08-17T02:04:01.063Z,20.13
2022-08-17T02:06:44.851Z,21.40
2022-08-17T02:09:16.955Z,22.93
2022-08-17T02:11:46.277Z,21.37
2022-08-17T02:14:14.646Z,20.23
2022-08-17T02:16:43.300Z,20.67
2022-08-17T02:19:13.680Z,21.10
2022-08-17T02:21:43.993Z,20.90
2022-08-17T02:24:16.687Z,21.47
2022-08-17T02:26:46.182Z,21.70
2022-08-17T02:29:15.778Z,20.80
2022-08-17T02:31:44.795Z,19.77
2022-08-17T02:34:13.957Z,20.90
2022-08-17T02:36:41.996Z,21.13
2022-08-17T02:39:11.917Z,23.00
2022-08-17T02:41:41.859Z,22.83
2022-08-17T02:44:09.739Z,23.40
2022-08-17T02:46:37.871Z,21.50
2022-08-17T02:49:06.103Z,21.77
2022-08-17T02:51:35.149Z,20.57
2022-08-17T02:54:40.076Z,20.87
2022-08-17T02:56:52.532Z,22.07
2022-08-17T02:59:20.383Z,22.70
2022-08-17T03:01:48.301Z,23.63
2022-08-17T03:04:16.293Z,23.70
2022-08-17T03:06:44.107Z,22.57
2022-08-17T03:09:11.945Z,23.23
2022-08-17T03:11:39.888Z,22.23
2022-08-17T03:14:09.290Z,23.03
2022-08-17T03:16:37.185Z,23.23
2022-08-17T03:19:06.147Z,24.10
2022-08-17T03:21:34.077Z,22.57
2022-08-17T03:24:01.905Z,22.50
2022-08-17T03:26:36.861Z,24.03
2022-08-17T03:29:04.681Z,22.90
2022-08-17T03:31:33.846Z,23.23
2022-08-17T03:34:05.003Z,24.37
2022-08-17T03:36:32.790Z,26.50
2022-08-17T03:39:04.185Z,24.93
2022-08-17T03:41:32.074Z,24.10
2022-08-17T03:44:00.457Z,21.20
2022-08-17T03:46:45.874Z,21.70
2022-08-17T03:49:32.609Z,22.50
2022-08-17T03:52:18.194Z,22.80
2022-08-17T03:55:04.100Z,24.80
2022-08-17T03:57:33.291Z,25.23
2022-08-17T04:00:01.137Z,23.73
2022-08-17T04:02:32.533Z,22.60
2022-08-17T04:05:02.094Z,23.93
2022-08-17T04:07:31.884Z,23.73
2022-08-17T04:10:00.368Z,24.47
2022-08-17T04:12:31.377Z,23.37
2022-08-17T04:14:59.545Z,23.43
2022-08-17T04:17:29.270Z,23.30
2022-08-17T04:19:58.321Z,22.33
2022-08-17T04:22:32.421Z,24.13
2022-08-17T04:25:08.375Z,23.13
2022-08-17T04:27:36.995Z,23.70
2022-08-17T04:30:07.856Z,25.30
2022-08-17T04:33:04.597Z,25.77
2022-08-17T04:35:38.703Z,25.30
2022-08-17T04:38:09.124Z,25.37
2022-08-17T04:40:54.750Z,26.30
2022-08-17T04:43:24.849Z,25.77
2022-08-17T04:45:56.849Z,26.03
2022-08-17T04:48:35.801Z,23.87
2022-08-17T04:51:07.851Z,26.43
2022-08-17T04:53:37.343Z,27.27
2022-08-17T04:56:05.710Z,27.23
2022-08-17T04:58:34.086Z,27.27
2022-08-17T05:01:02.489Z,28.43
2022-08-17T05:03:30.938Z,26.70
2022-08-17T05:05:58.763Z,28.70
2022-08-17T05:08:26.803Z,27.80
2022-08-17T05:10:56.014Z,28.40
2022-08-17T05:13:26.122Z,26.63
2022-08-17T05:15:57.011Z,25.80
2022-08-17T05:18:25.367Z,28.30
2022-08-17T05:20:53.429Z,26.13
2022-08-17T05:23:24.173Z,25.97
2022-08-17T05:25:56.250Z,26.60
2022-08-17T05:28:27.549Z,26.63
2022-08-17T05:30:58.971Z,25.00
2022-08-17T05:33:28.639Z,26.33
2022-08-17T05:35:58.482Z,28.97
2022-08-17T05:38:28.309Z,22.67
2022-08-17T05:40:58.410Z,24.20
2022-08-17T05:43:28.101Z,28.17
2022-08-17T05:46:03.186Z,22.87
2022-08-17T05:48:40.474Z,27.33
2022-08-17T05:51:24.730Z,27.70
2022-08-17T05:54:06.258Z,32.70
2022-08-17T05:56:52.870Z,28.77
2022-08-17T05:59:30.302Z,30.17
2022-08-17T06:02:07.575Z,28.97
2022-08-17T06:04:47.076Z,34.90
2022-08-17T06:07:21.714Z,35.47
2022-08-17T06:09:57.043Z,36.17
2022-08-17T06:12:41.547Z,35.83
2022-08-17T06:15:23.643Z,33.30
2022-08-17T06:17:56.859Z,33.97
2022-08-17T06:20:28.855Z,36.97
2022-08-17T06:23:03.601Z,38.37
2022-08-17T06:25:35.600Z,39.70
2022-08-17T06:28:09.600Z,37.07
2022-08-17T06:30:58.659Z,38.93
2022-08-17T06:33:34.129Z,37.10
2022-08-17T06:36:11.202Z,37.20
2022-08-17T06:38:54.715Z,38.13
2022-08-17T06:41:29.871Z,36.17
2022-08-17T06:44:43.186Z,36.90
2022-08-17T06:47:08.904Z,36.40
2022-08-17T06:49:45.339Z,34.37
2022-08-17T06:52:37.119Z,36.80
2022-08-17T06:55:18.990Z,34.57
2022-08-17T06:57:58.815Z,32.80
2022-08-17T07:00:33.471Z,33.93
2022-08-17T07:03:11.068Z,32.33
2022-08-17T07:05:45.535Z,33.37
2022-08-17T07:08:30.058Z,31.60
2022-08-17T07:11:04.715Z,31.60
2022-08-17T07:13:43.718Z,29.27
2022-08-17T07:16:25.959Z,26.83
2022-08-17T07:18:57.170Z,25.77
2022-08-17T07:21:38.716Z,25.80
2022-08-17T07:24:30.280Z,24.13
2022-08-17T07:27:07.349Z,23.73
2022-08-17T07:29:40.814Z,23.17
2022-08-17T07:32:12.068Z,22.53
2022-08-17T07:35:15.383Z,21.73
2022-08-17T07:37:45.757Z,21.17
2022-08-17T07:40:27.391Z,21.60
2022-08-17T07:43:03.279Z,19.30
2022-08-17T07:45:52.365Z,20.17
2022-08-17T07:48:24.557Z,19.97
2022-08-17T07:50:53.309Z,17.67
2022-08-17T07:53:24.052Z,16.20
2022-08-17T07:55:53.008Z,18.53
2022-08-17T07:58:24.025Z,18.17
2022-08-17T08:01:07.433Z,16.30
2022-08-17T08:03:41.990Z,17.00
2022-08-17T08:06:21.195Z,16.83
2022-08-17T08:08:54.747Z,17.80
2022-08-17T08:11:31.994Z,17.30
2022-08-17T08:14:28.576Z,16.37
2022-08-17T08:17:00.007Z,16.97
2022-08-17T08:19:31.286Z,16.50
2022-08-17T08:22:05.474Z,16.27
2022-08-17T08:24:57.233Z,15.97
2022-08-17T08:27:38.467Z,16.23
2022-08-17T08:30:10.636Z,15.00
2022-08-17T08:33:14.573Z,16.50
2022-08-17T08:35:52.227Z,15.93
2022-08-17T08:38:31.342Z,14.77
2022-08-17T08:41:11.982Z,15.47
2022-08-17T08:43:52.811Z,14.77
2022-08-17T08:46:30.443Z,13.93
2022-08-17T08:49:19.009Z,15.07
2022-08-17T08:51:55.374Z,13.75
2022-08-17T08:54:36.829Z,12.80
2022-08-17T08:57:26.948Z,12.30
2022-08-17T09:00:12.705Z,11.13
2022-08-17T09:03:05.266Z,12.20
2022-08-17T09:05:49.269Z,12.30
2022-08-17T09:08:26.926Z,12.63
2022-08-17T09:11:03.102Z,12.02
2022-08-17T09:13:43.807Z,11.75
2022-08-17T09:16:17.032Z,11.18
2022-08-17T09:18:59.866Z,11.52
2022-08-17T09:21:38.039Z,11.30
2022-08-17T09:24:23.952Z,10.70
2022-08-17T09:26:58.778Z,10.00
2022-08-17T09:29:34.937Z,11.60
2022-08-17T09:32:08.179Z,14.23
2022-08-17T09:34:43.573Z,12.80
2022-08-17T09:37:23.459Z,9.85
2022-08-17T09:40:03.674Z,11.85
2022-08-17T09:42:41.815Z,11.20
2022-08-17T09:45:24.700Z,10.68
2022-08-17T09:48:00.273Z,10.82
2022-08-17T09:51:05.014Z,9.68
2022-08-17T09:53:24.053Z,9.48
2022-08-17T09:56:07.609Z,9.20
2022-08-17T09:58:47.517Z,9.32
2022-08-17T10:01:24.934Z,9.60
2022-08-17T10:04:11.183Z,7.80
2022-08-17T10:06:52.538Z,7.78
2022-08-17T10:09:30.647Z,7.75
2022-08-17T10:12:20.229Z,7.90
2022-08-17T10:15:02.316Z,7.22
2022-08-17T10:17:44.024Z,7.90
2022-08-17T10:20:16.319Z,7.72
2022-08-17T10:23:05.743Z,7.95
2022-08-17T10:26:08.243Z,7.85
2022-08-17T10:28:43.918Z,7.68
2022-08-17T10:31:34.185Z,8.07
2022-08-17T10:34:41.244Z,7.43
2022-08-17T10:37:33.829Z,7.82
2022-08-17T10:40:12.591Z,7.78
2022-08-17T10:42:48.827Z,7.80
2022-08-17T10:45:23.508Z,8.50
2022-08-17T10:48:04.304Z,8.02
2022-08-17T10:50:50.368Z,8.48
2022-08-17T10:53:50.727Z,7.97
2022-08-17T10:56:41.335Z,7.43
2022-08-17T10:59:09.840Z,8.23
2022-08-17T11:02:13.832Z,8.65
2022-08-17T11:05:07.408Z,8.35
2022-08-17T11:07:53.250Z,7.90
2022-08-17T11:10:46.431Z,8.80
2022-08-17T11:13:30.724Z,8.80
2022-08-17T11:16:10.414Z,8.55
2022-08-17T11:19:09.937Z,8.30
2022-08-17T11:22:17.536Z,9.07
2022-08-17T11:24:47.990Z,8.23
2022-08-17T11:27:25.618Z,8.68
2022-08-17T11:30:01.468Z,8.38
2022-08-17T11:32:38.238Z,9.27
2022-08-17T11:35:33.083Z,8.48
2022-08-17T11:38:16.322Z,8.48
2022-08-17T11:41:10.264Z,8.10
2022-08-17T11:44:04.542Z,8.68
2022-08-17T11:47:12.402Z,8.82
2022-08-17T11:50:15.892Z,8.10
2022-08-17T11:52:47.878Z,10.15
2022-08-17T11:55:50.555Z,8.63
2022-08-17T11:58:40.166Z,8.43
2022-08-17T12:01:10.343Z,7.80
2022-08-17T12:03:54.479Z,8.00
2022-08-17T12:06:46.550Z,7.63
2022-08-17T12:09:24.866Z,8.38
2022-08-17T12:12:11.998Z,8.73
2022-08-17T12:17:40.093Z,7.60
2022-08-17T12:20:14.911Z,8.25
2022-08-17T12:22:53.309Z,7.63
2022-08-17T12:25:31.375Z,7.43
2022-08-17T12:28:06.739Z,7.60
2022-08-17T12:30:37.311Z,7.63
2022-08-17T12:33:12.464Z,7.65
2022-08-17T12:35:40.425Z,7.20
2022-08-17T12:38:32.199Z,7.55
2022-08-17T12:40:59.783Z,7.20
2022-08-17T12:43:31.065Z,7.03
2022-08-17T12:46:01.239Z,7.65
2022-08-17T12:48:59.322Z,7.35
2022-08-17T12:51:28.889Z,7.45
2022-08-17T12:53:56.697Z,7.43
2022-08-17T12:56:25.977Z,7.53
2022-08-17T12:58:55.546Z,7.63
2022-08-17T13:01:24.989Z,7.53
2022-08-17T13:03:59.788Z,8.10
2022-08-17T13:06:32.186Z,8.05
2022-08-17T13:09:11.375Z,8.00
2022-08-17T13:11:49.464Z,8.52
2022-08-17T13:14:18.858Z,7.30
2022-08-17T13:16:53.322Z,7.47
2022-08-17T13:19:40.026Z,7.25
2022-08-17T13:22:12.778Z,9.40
2022-08-17T13:24:54.300Z,10.18
2022-08-17T13:27:26.329Z,11.10
2022-08-17T13:29:57.469Z,11.88
2022-08-17T13:32:36.849Z,10.73
2022-08-17T13:35:49.965Z,11.68
2022-08-17T13:38:36.436Z,9.57
2022-08-17T13:41:06.425Z,11.07
2022-08-17T13:43:48.316Z,11.73
2022-08-17T13:46:22.334Z,11.00
2022-08-17T13:49:00.563Z,11.48
2022-08-17T13:51:33.268Z,11.38
2022-08-17T13:54:19.875Z,10.27
2022-08-17T13:56:55.823Z,10.05
2022-08-17T13:59:52.715Z,10.60
2022-08-17T14:02:27.793Z,11.75
2022-08-17T14:04:57.006Z,11.35
2022-08-17T14:07:33.598Z,11.65
2022-08-17T14:10:05.212Z,12.80
2022-08-17T14:12:35.427Z,11.20
2022-08-17T14:15:05.313Z,11.65
2022-08-17T14:17:38.472Z,11.00
2022-08-17T14:20:10.119Z,12.13
2022-08-17T14:22:40.580Z,12.65
2022-08-17T14:25:10.585Z,12.27
2022-08-17T14:27:52.279Z,12.55
2022-08-17T14:30:26.955Z,11.93
2022-08-17T14:32:59.054Z,12.02
2022-08-17T14:35:29.240Z,11.57
2022-08-17T14:37:57.355Z,13.98
2022-08-17T14:40:26.053Z,13.45
2022-08-17T14:42:55.638Z,12.57
2022-08-17T14:45:32.003Z,13.23
2022-08-17T14:48:02.585Z,12.95
2022-08-17T14:50:30.757Z,13.52
2022-08-17T14:53:01.634Z,14.25
2022-08-17T14:55:30.937Z,12.52
2022-08-17T14:57:58.960Z,12.82
2022-08-17T15:00:28.524Z,12.43
2022-08-17T15:02:58.827Z,12.18
2022-08-17T15:05:31.330Z,12.32
2022-08-17T15:07:59.774Z,13.10
2022-08-17T15:10:29.226Z,11.80
2022-08-17T15:12:57.833Z,13.02
2022-08-17T15:15:25.717Z,12.27
2022-08-17T15:17:55.233Z,12.07
2022-08-17T15:20:25.460Z,11.32
2022-08-17T15:22:55.203Z,11.15
2022-08-17T15:25:24.834Z,12.13
2022-08-17T15:27:53.950Z,11.98
2022-08-17T15:30:22.039Z,11.90
2022-08-17T15:32:54.540Z,10.73
2022-08-17T15:35:29.183Z,10.43
2022-08-17T15:38:07.890Z,10.15
2022-08-17T15:40:39.947Z,9.50
2022-08-17T15:43:09.322Z,10.45
2022-08-17T15:45:39.204Z,10.13
2022-08-17T15:48:07.315Z,9.73
2022-08-17T15:50:37.274Z,9.75
2022-08-17T15:53:05.359Z,10.77
2022-08-17T15:55:33.922Z,10.40
2022-08-17T15:58:02.810Z,10.27
2022-08-17T16:00:31.129Z,9.60
2022-08-17T16:03:58.100Z,9.80
2022-08-17T16:06:07.405Z,9.77
2022-08-17T16:08:38.299Z,9.57
2022-08-17T16:11:07.975Z,10.00
2022-08-17T16:13:35.791Z,9.50
2022-08-17T16:16:04.015Z,9.98
2022-08-17T16:18:32.356Z,9.30
2022-08-17T16:21:22.385Z,8.93
2022-08-17T16:23:53.674Z,9.10
2022-08-17T16:26:22.904Z,9.32
2022-08-17T16:28:51.259Z,9.30
2022-08-17T16:31:19.251Z,9.23
2022-08-17T16:34:17.092Z,9.50
2022-08-17T16:36:37.319Z,9.85
2022-08-17T16:39:06.682Z,9.50
2022-08-17T16:41:46.669Z,9.50
2022-08-17T16:44:16.067Z,9.38
2022-08-17T16:46:45.874Z,9.88
2022-08-17T16:49:35.466Z,9.50
2022-08-17T16:52:07.211Z,9.60
2022-08-17T16:54:38.582Z,9.90
2022-08-17T16:57:06.906Z,10.07
2022-08-17T16:59:40.749Z,10.48
2022-08-17T17:02:11.421Z,9.95
2022-08-17T17:04:43.638Z,10.20
2022-08-17T17:07:33.884Z,9.88
2022-08-17T17:10:08.578Z,9.85
2022-08-17T17:13:02.781Z,9.75
2022-08-17T17:15:32.410Z,10.30
2022-08-17T17:18:07.312Z,9.47
2022-08-17T17:20:40.857Z,10.13
2022-08-17T17:23:14.386Z,10.67
2022-08-17T17:25:52.245Z,10.73
2022-08-17T17:28:26.782Z,10.20
2022-08-17T17:31:03.197Z,10.73
2022-08-17T17:33:36.695Z,10.93
2022-08-17T17:36:09.684Z,10.67
2022-08-17T17:38:43.461Z,11.38
2022-08-17T17:41:23.900Z,11.07
2022-08-17T17:44:01.903Z,11.10
2022-08-17T17:46:35.099Z,11.00
2022-08-17T17:49:02.990Z,11.47
2022-08-17T17:52:08.729Z,10.95
2022-08-17T17:54:38.829Z,11.13
2022-08-17T17:57:21.209Z,10.97
2022-08-17T18:00:00.021Z,11.23
2022-08-17T18:02:51.291Z,10.40
2022-08-17T18:05:35.448Z,11.30
2022-08-17T18:08:12.672Z,11.83
2022-08-17T18:10:49.399Z,11.20
2022-08-17T18:13:25.951Z,11.30
2022-08-17T18:15:55.079Z,12.03
2022-08-17T18:18:37.426Z,11.93
2022-08-17T18:21:14.857Z,12.97
2022-08-17T18:23:49.013Z,12.50
2022-08-17T18:26:37.412Z,12.80
2022-08-17T18:29:34.265Z,11.87
2022-08-17T18:32:39.058Z,12.10
2022-08-17T18:35:30.327Z,12.17
2022-08-17T18:38:20.353Z,11.97
2022-08-17T18:40:59.696Z,12.77
2022-08-17T18:43:44.240Z,12.70
2022-08-17T18:46:28.929Z,12.30
2022-08-17T18:49:00.123Z,13.80
2022-08-17T18:51:37.288Z,12.83
2022-08-17T18:54:20.639Z,12.17
2022-08-17T18:56:54.415Z,12.23
2022-08-17T18:59:29.223Z,11.43
2022-08-17T19:02:37.317Z,8.93
2022-08-17T19:05:13.449Z,7.63
2022-08-17T19:07:43.522Z,7.20
2022-08-17T19:10:23.761Z,6.67
2022-08-17T19:13:00.776Z,6.40
2022-08-17T19:15:36.261Z,6.10
2022-08-17T19:18:15.488Z,6.03
2022-08-17T19:20:48.524Z,6.43
2022-08-17T19:23:23.521Z,6.00
2022-08-17T19:25:55.327Z,6.30
2022-08-17T19:28:28.738Z,6.10
2022-08-17T19:30:59.335Z,5.93
2022-08-17T19:33:28.704Z,7.20
2022-08-17T19:36:03.911Z,7.77
2022-08-17T19:38:43.018Z,7.53
2022-08-17T19:41:20.089Z,7.87
2022-08-17T19:44:22.054Z,8.40
2022-08-17T19:47:00.767Z,8.27
2022-08-17T19:49:46.562Z,9.03
2022-08-17T19:52:32.302Z,9.40
2022-08-17T19:55:07.318Z,8.80
2022-08-17T19:57:44.704Z,9.97
2022-08-17T20:00:16.255Z,10.80
2022-08-17T20:02:55.291Z,9.00
2022-08-17T20:05:54.614Z,9.03
2022-08-17T20:08:25.789Z,9.07
2022-08-17T20:10:58.491Z,9.67
2022-08-17T20:13:33.621Z,10.70
2022-08-17T20:16:02.362Z,10.00
2022-08-17T20:18:37.705Z,11.13
2022-08-17T20:21:20.010Z,11.00
2022-08-17T20:23:54.023Z,11.37
2022-08-17T20:26:27.173Z,10.47
2022-08-17T20:29:37.601Z,12.03
2022-08-17T20:32:26.386Z,9.13
2022-08-17T20:35:10.632Z,8.70
2022-08-17T20:37:44.473Z,7.50
2022-08-17T20:40:20.314Z,7.23
2022-08-17T20:42:48.278Z,7.40
2022-08-17T20:46:01.821Z,7.63
2022-08-17T20:48:38.626Z,8.40
2022-08-17T20:51:27.106Z,8.70
2022-08-17T20:54:07.523Z,7.70
2022-08-17T20:56:49.784Z,8.23
2022-08-17T20:59:55.053Z,8.60
2022-08-17T21:02:25.534Z,7.67
2022-08-17T21:05:07.892Z,7.03
2022-08-17T21:07:58.937Z,7.00
2022-08-17T21:10:36.533Z,7.60
2022-08-17T21:13:40.155Z,7.27
2022-08-17T21:16:27.577Z,8.10
2022-08-17T21:19:10.160Z,7.90
2022-08-17T21:21:46.444Z,8.07
2022-08-17T21:24:33.169Z,8.17
2022-08-17T21:27:12.163Z,8.40
2022-08-17T21:29:54.461Z,8.33
2022-08-17T21:32:30.319Z,9.43
2022-08-17T21:35:28.910Z,9.00
2022-08-17T21:38:03.808Z,9.00
2022-08-17T21:40:33.484Z,7.83
2022-08-17T21:43:17.465Z,8.00
2022-08-17T21:45:57.598Z,7.43
2022-08-17T21:48:28.201Z,6.90
2022-08-17T21:51:03.997Z,7.27
2022-08-17T21:53:38.994Z,8.20
2022-08-17T21:56:07.849Z,8.20
2022-08-17T21:58:40.831Z,7.97
2022-08-17T22:01:19.062Z,7.77
2022-08-17T22:03:48.433Z,8.37
2022-08-17T22:06:21.120Z,7.80
2022-08-17T22:09:00.658Z,7.10
2022-08-17T22:11:28.543Z,8.07
2022-08-17T22:14:05.196Z,8.53
2022-08-17T22:16:33.883Z,8.57
2022-08-17T22:19:01.828Z,8.20
2022-08-17T22:21:29.743Z,7.93
2022-08-17T22:24:05.867Z,7.57
2022-08-17T22:27:03.522Z,7.60
2022-08-17T22:29:54.344Z,7.73
2022-08-17T22:32:42.374Z,7.47
2022-08-17T22:35:34.379Z,7.10
2022-08-17T22:38:28.462Z,7.13
2022-08-17T22:41:13.777Z,6.70
2022-08-17T22:43:43.668Z,5.97
2022-08-17T22:46:14.900Z,6.50
2022-08-17T22:48:50.074Z,6.00
2022-08-17T22:51:21.834Z,6.40
2022-08-17T22:54:10.310Z,6.03
2022-08-17T22:56:56.485Z,6.17
2022-08-17T22:59:47.227Z,6.50
2022-08-17T23:02:21.646Z,6.00
2022-08-17T23:04:52.276Z,5.80
2022-08-17T23:07:20.480Z,6.03
2022-08-17T23:09:48.391Z,6.10
2022-08-17T23:12:22.685Z,6.23
2022-08-17T23:14:56.892Z,6.30
2022-08-17T23:17:27.512Z,6.87
2022-08-17T23:19:56.955Z,6.33
2022-08-17T23:22:25.716Z,7.10
2022-08-17T23:24:53.486Z,6.67
2022-08-17T23:27:22.095Z,6.80
2022-08-17T23:29:50.265Z,8.03
2022-08-17T23:32:19.310Z,7.83
2022-08-17T23:34:50.309Z,8.37
2022-08-17T23:37:19.597Z,8.57
2022-08-17T23:39:47.555Z,8.60
2022-08-17T23:42:24.483Z,7.80
2022-08-17T23:44:52.386Z,8.27
2022-08-17T23:47:21.325Z,7.27
2022-08-17T23:49:50.509Z,8.53
2022-08-17T23:52:22.990Z,7.37
2022-08-17T23:54:50.909Z,8.43
2022-08-17T23:57:33.578Z,7.90
